createdAt,value
2022-12-18T00:02:22.953Z,33.83
2022-12-18T00:04:56.860Z,31.33
2022-12-18T00:07:24.467Z,35.33
2022-12-18T00:09:51.931Z,38.73
2022-12-18T00:12:25.901Z,31.97
2022-12-18T00:14:53.271Z,30.27
2022-12-18T00:17:40.835Z,32.27
2022-12-18T00:20:09.067Z,34.63
2022-12-18T00:22:36.574Z,32.13
2022-12-18T00:25:10.886Z,31.40
2022-12-18T00:27:38.243Z,29.80
2022-12-18T00:30:06.190Z,35.70
2022-12-18T00:32:40.892Z,32.33
2022-12-18T00:35:08.825Z,30.50
2022-12-18T00:37:36.610Z,31.33
2022-12-18T00:40:11.844Z,29.90
2022-12-18T00:42:57.561Z,37.57
2022-12-18T00:45:37.898Z,32.57
2022-12-18T00:48:06.741Z,29.37
2022-12-18T00:50:34.093Z,30.10
2022-12-18T00:53:07.890Z,27.93
2022-12-18T00:55:35.399Z,27.60
2022-12-18T00:58:02.793Z,28.60
2022-12-18T01:00:36.909Z,28.27
2022-12-18T01:03:05.093Z,32.60
2022-12-18T01:05:33.644Z,29.37
2022-12-18T01:08:07.849Z,28.50
2022-12-18T01:10:35.251Z,30.23
2022-12-18T01:13:02.581Z,29.43
2022-12-18T01:15:36.879Z,29.70
2022-12-18T01:18:24.875Z,32.20
2022-12-18T01:21:01.853Z,32.80
2022-12-18T01:23:29.295Z,28.00
2022-12-18T01:25:56.630Z,28.50
2022-12-18T01:28:30.918Z,27.63
2022-12-18T01:30:58.355Z,27.53
2022-12-18T01:33:25.692Z,30.93
2022-12-18T01:35:59.871Z,28.20
2022-12-18T01:38:27.250Z,28.27
2022-12-18T01:41:08.875Z,27.07
2022-12-18T01:44:25.212Z,32.47
2022-12-18T01:46:58.838Z,29.07
2022-12-18T01:49:27.728Z,28.50
2022-12-18T01:51:55.085Z,27.27
2022-12-18T01:54:28.890Z,26.17
2022-12-18T01:56:56.198Z,27.73
2022-12-18T01:59:23.782Z,26.67
2022-12-18T02:01:58.082Z,27.93
2022-12-18T02:04:28.198Z,27.53
2022-12-18T02:07:18.961Z,25.13
2022-12-18T02:09:52.856Z,24.67
2022-12-18T02:12:29.891Z,25.20
2022-12-18T02:15:03.865Z,26.87
2022-12-18T02:17:53.156Z,26.93
2022-12-18T02:20:36.042Z,25.93
2022-12-18T02:23:36.161Z,25.63
2022-12-18T02:26:20.112Z,31.27
2022-12-18T02:29:03.895Z,24.80
2022-12-18T02:31:37.755Z,23.93
2022-12-18T02:34:13.891Z,25.00
2022-12-18T02:36:44.731Z,23.07
2022-12-18T02:39:20.891Z,21.10
2022-12-18T02:41:49.072Z,24.20
2022-12-18T02:44:16.662Z,24.17
2022-12-18T02:47:01.872Z,25.47
2022-12-18T02:50:08.939Z,23.60
2022-12-18T02:53:09.893Z,25.67
2022-12-18T02:56:04.092Z,22.43
2022-12-18T02:59:08.912Z,22.87
2022-12-18T03:02:10.732Z,22.40
2022-12-18T03:04:54.929Z,27.67
2022-12-18T03:07:36.553Z,19.40
2022-12-18T03:10:10.881Z,21.80
2022-12-18T03:12:44.396Z,24.80
2022-12-18T03:15:26.907Z,26.00
2022-12-18T03:18:11.945Z,26.67
2022-12-18T03:20:49.854Z,21.40
2022-12-18T03:23:25.955Z,20.37
2022-12-18T03:26:07.600Z,20.17
2022-12-18T03:28:39.733Z,21.03
2022-12-18T03:31:16.917Z,23.03
2022-12-18T03:33:51.926Z,22.13
2022-12-18T03:36:25.918Z,20.83
2022-12-18T03:38:53.561Z,21.57
2022-12-18T03:41:53.881Z,25.97
2022-12-18T03:44:43.732Z,21.83
2022-12-18T03:47:39.912Z,22.73
2022-12-18T03:50:20.475Z,21.87
2022-12-18T03:53:14.912Z,22.50
2022-12-18T03:55:44.311Z,20.03
2022-12-18T03:58:21.867Z,19.73
2022-12-18T04:00:51.725Z,23.67
2022-12-18T04:03:25.485Z,20.60
2022-12-18T04:06:01.924Z,21.20
2022-12-18T04:08:30.310Z,20.27
2022-12-18T04:10:57.743Z,20.87
2022-12-18T04:13:43.361Z,23.47
2022-12-18T04:16:11.150Z,25.00
2022-12-18T04:18:51.896Z,19.70
2022-12-18T04:21:19.242Z,23.17
2022-12-18T04:23:46.650Z,23.10
2022-12-18T04:26:20.895Z,27.97
2022-12-18T04:28:48.332Z,21.40
2022-12-18T04:31:15.796Z,20.73
2022-12-18T04:33:49.910Z,21.87
2022-12-18T04:36:17.277Z,20.80
2022-12-18T04:38:44.665Z,21.47
2022-12-18T04:41:18.903Z,26.77
2022-12-18T04:43:46.233Z,22.23
2022-12-18T04:46:13.713Z,23.17
2022-12-18T04:48:47.925Z,26.43
2022-12-18T04:51:15.423Z,26.60
2022-12-18T04:53:43.067Z,26.37
2022-12-18T04:56:19.931Z,22.87
2022-12-18T04:58:47.385Z,22.90
2022-12-18T05:01:16.474Z,23.40
2022-12-18T05:03:50.958Z,24.87
2022-12-18T05:06:18.431Z,23.47
2022-12-18T05:08:45.877Z,23.97
2022-12-18T05:11:25.886Z,25.63
2022-12-18T05:13:53.287Z,23.93
2022-12-18T05:16:20.786Z,24.73
2022-12-18T05:18:54.894Z,25.30
2022-12-18T05:21:28.942Z,25.10
2022-12-18T05:24:02.881Z,22.63
2022-12-18T05:26:30.317Z,23.63
2022-12-18T05:28:57.983Z,26.67
2022-12-18T05:31:37.497Z,24.83
2022-12-18T05:34:07.162Z,26.60
2022-12-18T05:36:40.868Z,28.67
2022-12-18T05:39:08.368Z,27.17
2022-12-18T05:41:35.787Z,25.97
2022-12-18T05:44:09.905Z,27.93
2022-12-18T05:46:38.114Z,30.93
2022-12-18T05:49:05.619Z,26.30
2022-12-18T05:51:39.892Z,30.87
2022-12-18T05:54:08.937Z,25.00
2022-12-18T05:56:36.322Z,32.60
2022-12-18T05:59:09.926Z,34.60
2022-12-18T06:01:37.459Z,30.80
2022-12-18T06:04:06.531Z,28.20
2022-12-18T06:06:40.962Z,31.03
2022-12-18T06:09:10.416Z,28.97
2022-12-18T06:11:38.653Z,28.10
2022-12-18T06:14:13.925Z,28.73
2022-12-18T06:16:41.396Z,29.00
2022-12-18T06:19:57.946Z,30.07
2022-12-18T06:22:26.064Z,28.57
2022-12-18T06:24:53.514Z,25.37
2022-12-18T06:27:27.889Z,29.63
2022-12-18T06:29:55.340Z,29.77
2022-12-18T06:32:23.009Z,30.73
2022-12-18T06:34:56.975Z,36.60
2022-12-18T06:37:27.818Z,30.10
2022-12-18T06:40:08.956Z,29.00
2022-12-18T06:42:37.592Z,28.37
2022-12-18T06:45:05.859Z,33.20
2022-12-18T06:47:39.974Z,28.00
2022-12-18T06:50:07.979Z,33.07
2022-12-18T06:52:35.945Z,31.77
2022-12-18T06:55:10.963Z,32.83
2022-12-18T06:57:39.450Z,33.10
2022-12-18T07:00:09.296Z,34.77
2022-12-18T07:02:44.849Z,28.87
2022-12-18T07:05:12.629Z,33.63
2022-12-18T07:07:40.569Z,35.00
2022-12-18T07:10:16.167Z,35.93
2022-12-18T07:12:43.899Z,37.57
2022-12-18T07:15:11.752Z,35.77
2022-12-18T07:17:46.016Z,36.80
2022-12-18T07:20:20.206Z,35.87
2022-12-18T07:22:56.322Z,38.60
2022-12-18T07:25:24.130Z,36.50
2022-12-18T07:27:51.895Z,42.33
2022-12-18T07:30:26.188Z,35.53
2022-12-18T07:32:53.892Z,36.70
2022-12-18T07:35:25.015Z,40.53
2022-12-18T07:38:00.075Z,37.00
2022-12-18T07:40:27.715Z,41.20
2022-12-18T07:42:55.512Z,34.87
2022-12-18T07:45:30.080Z,38.03
2022-12-18T07:47:57.777Z,42.37
2022-12-18T07:50:25.579Z,42.60
2022-12-18T07:52:59.983Z,42.47
2022-12-18T07:55:27.672Z,42.97
2022-12-18T07:58:00.702Z,40.73
2022-12-18T08:00:35.051Z,41.27
2022-12-18T08:03:02.980Z,38.53
2022-12-18T08:05:30.700Z,38.53
2022-12-18T08:08:05.992Z,37.13
2022-12-18T08:10:33.743Z,44.00
2022-12-18T08:13:04.884Z,42.73
2022-12-18T08:15:38.959Z,40.07
2022-12-18T08:18:14.532Z,40.97
2022-12-18T08:20:56.057Z,39.53
2022-12-18T08:23:26.509Z,39.40
2022-12-18T08:26:02.989Z,39.00
2022-12-18T08:28:30.827Z,34.03
2022-12-18T08:30:58.673Z,40.47
2022-12-18T08:33:34.083Z,37.50
2022-12-18T08:36:02.938Z,38.07
2022-12-18T08:38:30.654Z,36.97
2022-12-18T08:41:13.430Z,37.63
2022-12-18T08:44:00.621Z,38.73
2022-12-18T08:46:39.110Z,41.33
2022-12-18T08:49:08.202Z,41.07
2022-12-18T08:51:37.026Z,37.53
2022-12-18T08:54:11.921Z,37.37
2022-12-18T08:56:39.594Z,36.23
2022-12-18T08:59:07.253Z,35.60
2022-12-18T09:01:41.004Z,35.83
2022-12-18T09:04:12.851Z,34.47
2022-12-18T09:06:40.486Z,36.17
2022-12-18T09:09:14.942Z,34.03
2022-12-18T09:11:42.446Z,35.97
2022-12-18T09:14:11.272Z,38.07
2022-12-18T09:16:44.960Z,36.53
2022-12-18T09:19:18.943Z,36.97
2022-12-18T09:21:59.906Z,40.97
2022-12-18T09:24:27.334Z,38.50
2022-12-18T09:26:57.832Z,34.77
2022-12-18T09:29:31.927Z,39.00
2022-12-18T09:31:59.359Z,38.80
2022-12-18T09:34:26.887Z,40.10
2022-12-18T09:37:00.938Z,41.97
2022-12-18T09:39:28.279Z,34.73
2022-12-18T09:41:58.679Z,41.90
2022-12-18T09:44:47.004Z,43.47
2022-12-18T09:47:26.990Z,41.33
2022-12-18T09:50:05.915Z,44.40
2022-12-18T09:52:44.895Z,40.53
2022-12-18T09:55:42.906Z,42.77
2022-12-18T09:58:17.872Z,41.07
2022-12-18T10:00:51.970Z,41.40
2022-12-18T10:03:19.303Z,43.57
2022-12-18T10:06:22.209Z,38.03
2022-12-18T10:09:28.183Z,41.70
2022-12-18T10:12:26.974Z,41.83
2022-12-18T10:15:41.064Z,40.10
2022-12-18T10:18:34.950Z,45.10
2022-12-18T10:21:23.027Z,39.10
2022-12-18T10:24:20.991Z,37.90
2022-12-18T10:26:49.162Z,38.07
2022-12-18T10:29:18.048Z,40.37
2022-12-18T10:31:51.958Z,37.17
2022-12-18T10:34:19.315Z,36.13
2022-12-18T10:36:48.520Z,37.87
2022-12-18T10:39:23.964Z,41.50
2022-12-18T10:41:51.440Z,38.10
2022-12-18T10:44:52.010Z,33.63
2022-12-18T10:47:20.381Z,35.80
2022-12-18T10:49:59.956Z,37.43
2022-12-18T10:52:28.324Z,36.87
2022-12-18T10:55:09.932Z,36.97
2022-12-18T10:57:39.728Z,36.60
2022-12-18T11:00:34.941Z,38.17
2022-12-18T11:03:02.516Z,37.00
2022-12-18T11:05:31.512Z,39.97
2022-12-18T11:08:06.932Z,38.97
2022-12-18T11:10:40.974Z,41.00
2022-12-18T11:13:30.968Z,43.57
2022-12-18T11:15:58.899Z,44.57
2022-12-18T11:18:49.928Z,41.13
2022-12-18T11:21:17.581Z,35.77
2022-12-18T11:24:01.948Z,41.63
2022-12-18T11:26:37.187Z,43.20
2022-12-18T11:29:24.905Z,42.73
2022-12-18T11:31:52.314Z,43.97
2022-12-18T11:34:39.953Z,42.23
2022-12-18T11:37:10.347Z,39.97
2022-12-18T11:39:58.001Z,42.67
2022-12-18T11:43:05.022Z,44.83
2022-12-18T11:45:44.959Z,39.17
2022-12-18T11:48:22.562Z,37.20
2022-12-18T11:51:06.918Z,39.43
2022-12-18T11:53:34.582Z,39.83
2022-12-18T11:56:49.977Z,40.03
2022-12-18T11:59:26.907Z,37.83
2022-12-18T12:02:24.089Z,37.73
2022-12-18T12:05:05.892Z,35.03
2022-12-18T12:08:00.933Z,35.80
2022-12-18T12:10:51.424Z,36.13
2022-12-18T12:13:45.956Z,40.43
2022-12-18T12:16:30.885Z,37.33
2022-12-18T12:19:36.943Z,40.37
2022-12-18T12:22:32.041Z,41.17
2022-12-18T12:25:42.943Z,42.47
2022-12-18T12:28:13.031Z,39.63
2022-12-18T12:31:07.974Z,41.67
2022-12-18T12:34:02.278Z,37.77
2022-12-18T12:37:18.960Z,37.53
2022-12-18T12:39:48.180Z,38.37
2022-12-18T12:43:21.967Z,34.67
2022-12-18T12:46:08.199Z,37.63
2022-12-18T12:49:16.998Z,39.07
2022-12-18T12:51:48.051Z,37.13
2022-12-18T12:54:31.037Z,42.87
2022-12-18T12:57:10.559Z,36.93
2022-12-18T13:00:15.956Z,40.20
2022-12-18T13:02:57.705Z,40.13
2022-12-18T13:06:00.986Z,47.97
2022-12-18T13:08:33.260Z,42.40
2022-12-18T13:11:29.938Z,42.63
2022-12-18T13:13:58.233Z,40.73
2022-12-18T13:16:28.584Z,41.83
2022-12-18T13:19:05.961Z,43.03
2022-12-18T13:21:40.131Z,42.10
2022-12-18T13:24:35.020Z,42.93
2022-12-18T13:27:23.256Z,46.43
2022-12-18T13:29:58.974Z,46.50
2022-12-18T13:32:27.181Z,47.80
2022-12-18T13:35:29.956Z,47.00
2022-12-18T13:37:57.587Z,44.13
2022-12-18T13:40:46.999Z,44.73
2022-12-18T13:43:43.898Z,46.43
2022-12-18T13:46:37.033Z,53.53
2022-12-18T13:49:21.815Z,52.40
2022-12-18T13:51:59.004Z,50.87
2022-12-18T13:54:33.234Z,48.13
2022-12-18T13:57:07.015Z,47.63
2022-12-18T13:59:40.219Z,45.13
2022-12-18T14:02:26.116Z,49.60
2022-12-18T14:04:54.228Z,49.53
2022-12-18T14:07:41.867Z,48.13
2022-12-18T14:13:17.035Z,49.73
2022-12-18T14:15:48.968Z,51.83
2022-12-18T14:18:28.023Z,48.10
2022-12-18T14:21:08.115Z,55.33
2022-12-18T14:23:49.987Z,56.63
2022-12-18T14:26:44.312Z,58.03
2022-12-18T14:29:34.956Z,56.23
2022-12-18T14:32:18.271Z,51.80
2022-12-18T14:35:03.019Z,54.93
2022-12-18T14:37:30.490Z,55.63
2022-12-18T14:40:03.183Z,57.33
2022-12-18T14:42:41.015Z,58.57
2022-12-18T14:45:41.088Z,59.90
2022-12-18T14:48:41.004Z,57.00
2022-12-18T14:51:18.459Z,61.77
2022-12-18T14:54:05.053Z,58.50
2022-12-18T14:56:38.064Z,55.87
2022-12-18T14:59:31.001Z,60.50
2022-12-18T15:02:09.448Z,64.47
2022-12-18T15:04:49.056Z,65.33
2022-12-18T15:07:17.841Z,69.93
2022-12-18T15:10:11.959Z,66.43
2022-12-18T15:12:44.461Z,62.10
2022-12-18T15:15:40.070Z,64.63
2022-12-18T15:18:13.177Z,70.40
2022-12-18T15:21:03.019Z,63.50
2022-12-18T15:23:49.965Z,67.53
2022-12-18T15:26:25.992Z,69.00
2022-12-18T15:28:56.379Z,67.83
2022-12-18T15:31:43.043Z,67.97
2022-12-18T15:34:13.330Z,65.80
2022-12-18T15:36:41.158Z,67.07
2022-12-18T15:39:20.012Z,60.90
2022-12-18T15:42:06.055Z,70.73
2022-12-18T15:44:39.993Z,65.97
2022-12-18T15:47:13.170Z,68.37
2022-12-18T15:49:46.993Z,69.80
2022-12-18T15:52:26.967Z,68.83
2022-12-18T15:55:20.006Z,74.90
2022-12-18T15:57:47.363Z,74.83
2022-12-18T16:00:15.605Z,70.47
2022-12-18T16:02:50.125Z,68.10
2022-12-18T16:05:19.355Z,77.20
2022-12-18T16:07:46.959Z,73.73
2022-12-18T16:10:21.963Z,71.90
2022-12-18T16:12:49.591Z,67.57
2022-12-18T16:15:24.068Z,74.13
2022-12-18T16:17:58.972Z,73.87
2022-12-18T16:20:33.038Z,74.47
2022-12-18T16:23:06.994Z,70.53
2022-12-18T16:25:34.815Z,71.97
2022-12-18T16:28:02.280Z,80.43
2022-12-18T16:30:38.584Z,70.23
2022-12-18T16:33:07.687Z,70.30
2022-12-18T16:35:38.067Z,61.33
2022-12-18T16:38:12.024Z,64.90
2022-12-18T16:40:59.650Z,62.23
2022-12-18T16:43:34.005Z,62.43
2022-12-18T16:46:01.727Z,59.47
2022-12-18T16:48:29.146Z,60.13
2022-12-18T16:51:10.009Z,63.57
2022-12-18T16:53:37.364Z,56.53
2022-12-18T16:56:04.793Z,49.57
2022-12-18T16:58:41.025Z,51.60
2022-12-18T17:01:11.202Z,52.70
2022-12-18T17:03:39.188Z,53.77
2022-12-18T17:06:13.992Z,61.40
2022-12-18T17:08:41.372Z,48.93
2022-12-18T17:11:09.105Z,44.77
2022-12-18T17:13:43.410Z,45.27
2022-12-18T17:16:11.420Z,40.27
2022-12-18T17:18:38.792Z,38.30
2022-12-18T17:21:16.027Z,40.53
2022-12-18T17:23:50.098Z,34.63
2022-12-18T17:26:24.003Z,37.87
2022-12-18T17:28:51.399Z,33.07
2022-12-18T17:31:21.438Z,38.30
2022-12-18T17:33:56.004Z,33.30
2022-12-18T17:36:24.262Z,33.37
2022-12-18T17:38:53.623Z,34.37
2022-12-18T17:41:27.984Z,28.80
2022-12-18T17:43:57.596Z,32.43
2022-12-18T17:46:26.455Z,29.63
2022-12-18T17:49:02.997Z,29.67
2022-12-18T17:51:31.286Z,29.97
2022-12-18T17:53:58.723Z,31.37
2022-12-18T17:56:33.044Z,26.27
2022-12-18T17:59:00.709Z,27.57
2022-12-18T18:01:29.305Z,25.00
2022-12-18T18:04:04.136Z,25.90
2022-12-18T18:06:32.434Z,25.40
2022-12-18T18:09:02.244Z,28.27
2022-12-18T18:12:12.023Z,22.33
2022-12-18T18:14:39.415Z,22.80
2022-12-18T18:17:07.106Z,20.37
2022-12-18T18:19:42.024Z,21.13
2022-12-18T18:22:19.032Z,22.50
2022-12-18T18:24:53.005Z,25.13
2022-12-18T18:27:20.369Z,18.10
2022-12-18T18:29:47.830Z,18.30
2022-12-18T18:32:22.006Z,15.57
2022-12-18T18:34:49.401Z,16.20
2022-12-18T18:37:16.839Z,15.03
2022-12-18T18:39:51.063Z,14.33
2022-12-18T18:42:19.503Z,14.30
2022-12-18T18:44:49.060Z,14.53
2022-12-18T18:47:23.029Z,21.93
2022-12-18T18:49:50.539Z,15.90
2022-12-18T18:52:17.948Z,16.00
2022-12-18T18:55:12.232Z,15.70
2022-12-18T18:57:40.363Z,14.97
2022-12-18T19:00:15.030Z,11.83
2022-12-18T19:02:42.743Z,11.63
2022-12-18T19:05:10.444Z,12.03
2022-12-18T19:07:45.065Z,9.50
2022-12-18T19:10:12.511Z,13.60
2022-12-18T19:13:04.991Z,9.70
2022-12-18T19:15:33.552Z,7.50
2022-12-18T19:18:01.265Z,5.83
2022-12-18T19:20:35.147Z,6.50
2022-12-18T19:23:02.539Z,6.83
2022-12-18T19:25:40.363Z,6.27
2022-12-18T19:28:22.297Z,5.30
2022-12-18T19:30:51.089Z,5.00
2022-12-18T19:33:43.057Z,5.93
2022-12-18T19:36:19.957Z,8.33
2022-12-18T19:38:55.279Z,5.73
2022-12-18T19:41:23.790Z,4.57
2022-12-18T19:43:53.028Z,4.53
2022-12-18T19:46:29.134Z,4.13
2022-12-18T19:48:59.095Z,5.37
2022-12-18T19:51:28.341Z,4.27
2022-12-18T19:54:03.017Z,5.50
2022-12-18T19:56:33.716Z,3.40
2022-12-18T19:59:02.024Z,5.23
2022-12-18T20:01:37.105Z,3.83
2022-12-18T20:04:04.811Z,4.97
2022-12-18T20:06:53.001Z,6.10
2022-12-18T20:09:21.355Z,3.03
2022-12-18T20:11:49.700Z,9.37
2022-12-18T20:14:24.125Z,5.60
2022-12-18T20:16:52.988Z,7.10
2022-12-18T20:19:42.185Z,9.03
2022-12-18T20:22:09.901Z,4.57
2022-12-18T20:24:37.305Z,6.07
2022-12-18T20:27:15.208Z,3.27
2022-12-18T20:29:44.662Z,2.10
2022-12-18T20:32:19.087Z,4.57
2022-12-18T20:34:46.687Z,2.23
2022-12-18T20:37:14.740Z,2.37
2022-12-18T20:39:50.010Z,2.37
2022-12-18T20:42:18.004Z,3.07
2022-12-18T20:44:45.882Z,3.13
2022-12-18T20:47:20.029Z,2.80
2022-12-18T20:49:47.453Z,3.43
2022-12-18T20:52:14.837Z,1.87
2022-12-18T20:54:49.027Z,2.60
2022-12-18T20:57:16.377Z,2.27
2022-12-18T20:59:48.166Z,3.20
2022-12-18T21:02:23.304Z,2.20
2022-12-18T21:04:51.158Z,2.47
2022-12-18T21:07:18.687Z,2.83
2022-12-18T21:09:53.079Z,2.00
2022-12-18T21:13:01.749Z,2.20
2022-12-18T21:15:38.041Z,2.10
2022-12-18T21:18:05.502Z,2.53
2022-12-18T21:20:45.998Z,2.97
2022-12-18T21:23:16.633Z,2.03
2022-12-18T21:25:45.612Z,2.47
2022-12-18T21:28:20.998Z,2.13
2022-12-18T21:30:49.152Z,3.23
2022-12-18T21:33:16.511Z,2.53
2022-12-18T21:35:53.073Z,1.80
2022-12-18T21:38:20.739Z,1.77
2022-12-18T21:40:48.128Z,1.97
2022-12-18T21:43:41.043Z,1.83
2022-12-18T21:46:08.458Z,1.77
2022-12-18T21:48:38.517Z,3.20
2022-12-18T21:51:12.047Z,2.00
2022-12-18T21:53:39.414Z,1.33
2022-12-18T21:56:07.004Z,1.80
2022-12-18T21:58:41.045Z,2.20
2022-12-18T22:01:24.647Z,3.73
2022-12-18T22:04:08.050Z,2.57
2022-12-18T22:06:35.739Z,2.20
2022-12-18T22:09:06.119Z,2.23
2022-12-18T22:11:40.045Z,2.97
2022-12-18T22:14:07.811Z,1.30
2022-12-18T22:16:35.575Z,2.77
2022-12-18T22:19:12.169Z,2.10
2022-12-18T22:21:50.356Z,1.40
2022-12-18T22:24:33.053Z,1.27
2022-12-18T22:27:02.160Z,2.13
2022-12-18T22:29:55.031Z,1.77
2022-12-18T22:32:31.321Z,1.70
2022-12-18T22:35:15.850Z,1.77
2022-12-18T22:37:43.553Z,2.87
2022-12-18T22:40:26.543Z,2.40
2022-12-18T22:42:54.980Z,1.83
2022-12-18T22:45:22.601Z,1.90
2022-12-18T22:47:57.067Z,2.07
2022-12-18T22:50:24.842Z,1.87
2022-12-18T22:52:52.300Z,2.23
2022-12-18T22:55:26.067Z,2.07
2022-12-18T22:57:54.399Z,2.07
2022-12-18T23:00:24.368Z,2.33
2022-12-18T23:03:01.084Z,2.37
2022-12-18T23:05:32.839Z,1.73
2022-12-18T23:08:07.058Z,1.73
2022-12-18T23:10:38.775Z,2.40
2022-12-18T23:13:06.925Z,2.00
2022-12-18T23:15:41.566Z,1.70
2022-12-18T23:18:08.976Z,1.93
2022-12-18T23:20:50.055Z,1.40
2022-12-18T23:23:24.093Z,2.97
2022-12-18T23:25:58.034Z,2.23
2022-12-18T23:28:26.007Z,2.07
2022-12-18T23:31:08.061Z,2.23
2022-12-18T23:33:35.510Z,2.33
2022-12-18T23:36:04.209Z,2.63
2022-12-18T23:38:39.038Z,2.77
2022-12-18T23:41:11.922Z,2.47
2022-12-18T23:43:46.053Z,1.83
2022-12-18T23:46:30.205Z,3.03
2022-12-18T23:49:10.027Z,2.23
2022-12-18T23:51:38.888Z,1.37
2022-12-18T23:54:08.513Z,1.60
2022-12-18T23:56:42.044Z,2.20
2022-12-18T23:59:09.614Z,2.43
